sensor_id;sensor_type;location;lat;lon;timestamp;P1;durP1;ratioP1;P2;durP2;ratioP2
10074;SDS011;5076;42.680;23.288;2022-11-20T00:02:09;2.07;;;0.93;;
10074;SDS011;5076;42.680;23.288;2022-11-20T00:04:35;2.37;;;0.80;;
10074;SDS011;5076;42.680;23.288;2022-11-20T00:07:02;2.77;;;0.80;;
10074;SDS011;5076;42.680;23.288;2022-11-20T00:09:28;2.10;;;0.73;;
10074;SDS011;5076;42.680;23.288;2022-11-20T00:11:55;9.40;;;1.30;;
10074;SDS011;5076;42.680;23.288;2022-11-20T00:14:21;2.63;;;1.47;;
10074;SDS011;5076;42.680;23.288;2022-11-20T00:16:48;1.90;;;1.07;;
10074;SDS011;5076;42.680;23.288;2022-11-20T00:19:16;2.43;;;1.17;;
10074;SDS011;5076;42.680;23.288;2022-11-20T00:21:42;2.33;;;0.97;;
10074;SDS011;5076;42.680;23.288;2022-11-20T00:24:09;0.97;;;0.57;;
10074;SDS011;5076;42.680;23.288;2022-11-20T00:26:36;1.50;;;0.77;;
10074;SDS011;5076;42.680;23.288;2022-11-20T00:29:02;1.80;;;0.87;;
10074;SDS011;5076;42.680;23.288;2022-11-20T00:31:29;2.67;;;0.83;;
10074;SDS011;5076;42.680;23.288;2022-11-20T00:33:58;1.30;;;0.80;;
10074;SDS011;5076;42.680;23.288;2022-11-20T00:36:26;2.50;;;0.67;;
10074;SDS011;5076;42.680;23.288;2022-11-20T00:38:54;3.60;;;0.70;;
10074;SDS011;5076;42.680;23.288;2022-11-20T00:41:20;2.53;;;0.80;;
10074;SDS011;5076;42.680;23.288;2022-11-20T00:43:47;1.60;;;0.90;;
10074;SDS011;5076;42.680;23.288;2022-11-20T00:46:14;2.60;;;0.90;;
10074;SDS011;5076;42.680;23.288;2022-11-20T00:48:41;2.30;;;0.77;;
10074;SDS011;5076;42.680;23.288;2022-11-20T00:51:08;1.40;;;1.13;;
10074;SDS011;5076;42.680;23.288;2022-11-20T00:53:36;2.93;;;1.97;;
10074;SDS011;5076;42.680;23.288;2022-11-20T00:56:03;1.40;;;1.10;;
10074;SDS011;5076;42.680;23.288;2022-11-20T00:58:31;1.03;;;0.90;;
10074;SDS011;5076;42.680;23.288;2022-11-20T01:01:00;3.97;;;1.20;;
10074;SDS011;5076;42.680;23.288;2022-11-20T01:03:30;2.10;;;1.37;;
10074;SDS011;5076;42.680;23.288;2022-11-20T01:05:59;3.33;;;1.13;;
10074;SDS011;5076;42.680;23.288;2022-11-20T01:08:28;2.60;;;1.17;;
10074;SDS011;5076;42.680;23.288;2022-11-20T01:10:59;1.50;;;1.00;;
10074;SDS011;5076;42.680;23.288;2022-11-20T01:13:26;2.77;;;0.90;;
10074;SDS011;5076;42.680;23.288;2022-11-20T01:16:06;3.23;;;1.20;;
10074;SDS011;5076;42.680;23.288;2022-11-20T01:18:33;2.47;;;1.27;;
10074;SDS011;5076;42.680;23.288;2022-11-20T01:21:01;1.67;;;0.70;;
10074;SDS011;5076;42.680;23.288;2022-11-20T01:23:29;2.60;;;1.30;;
10074;SDS011;5076;42.680;23.288;2022-11-20T01:25:56;2.47;;;1.20;;
10074;SDS011;5076;42.680;23.288;2022-11-20T01:28:24;1.50;;;0.70;;
10074;SDS011;5076;42.680;23.288;2022-11-20T01:30:50;1.13;;;0.83;;
10074;SDS011;5076;42.680;23.288;2022-11-20T01:33:17;2.37;;;1.20;;
10074;SDS011;5076;42.680;23.288;2022-11-20T01:35:44;1.10;;;0.80;;
10074;SDS011;5076;42.680;23.288;2022-11-20T01:38:10;2.20;;;0.90;;
10074;SDS011;5076;42.680;23.288;2022-11-20T01:40:37;1.40;;;0.80;;
10074;SDS011;5076;42.680;23.288;2022-11-20T01:43:09;0.90;;;0.57;;
10074;SDS011;5076;42.680;23.288;2022-11-20T01:45:56;1.90;;;0.63;;
10074;SDS011;5076;42.680;23.288;2022-11-20T01:48:23;2.27;;;1.10;;
10074;SDS011;5076;42.680;23.288;2022-11-20T01:50:51;2.43;;;1.03;;
10074;SDS011;5076;42.680;23.288;2022-11-20T01:53:18;1.97;;;0.90;;
10074;SDS011;5076;42.680;23.288;2022-11-20T01:55:48;0.63;;;0.63;;
10074;SDS011;5076;42.680;23.288;2022-11-20T01:58:15;0.57;;;0.57;;
10074;SDS011;5076;42.680;23.288;2022-11-20T02:00:42;0.70;;;0.60;;
10074;SDS011;5076;42.680;23.288;2022-11-20T02:03:11;1.37;;;0.70;;
10074;SDS011;5076;42.680;23.288;2022-11-20T02:05:39;1.33;;;0.60;;
10074;SDS011;5076;42.680;23.288;2022-11-20T02:08:08;0.97;;;0.70;;
10074;SDS011;5076;42.680;23.288;2022-11-20T02:10:34;1.20;;;0.80;;
10074;SDS011;5076;42.680;23.288;2022-11-20T02:13:01;0.60;;;0.60;;
10074;SDS011;5076;42.680;23.288;2022-11-20T02:15:45;1.13;;;0.77;;
10074;SDS011;5076;42.680;23.288;2022-11-20T02:18:13;0.83;;;0.60;;
10074;SDS011;5076;42.680;23.288;2022-11-20T02:20:40;1.53;;;0.80;;
10074;SDS011;5076;42.680;23.288;2022-11-20T02:23:08;0.87;;;0.70;;
10074;SDS011;5076;42.680;23.288;2022-11-20T02:25:39;2.63;;;0.80;;
10074;SDS011;5076;42.680;23.288;2022-11-20T02:28:06;4.87;;;0.90;;
10074;SDS011;5076;42.680;23.288;2022-11-20T02:30:33;2.53;;;0.77;;
10074;SDS011;5076;42.680;23.288;2022-11-20T02:33:00;2.63;;;0.60;;
10074;SDS011;5076;42.680;23.288;2022-11-20T02:35:39;1.57;;;0.63;;
10074;SDS011;5076;42.680;23.288;2022-11-20T02:38:06;0.73;;;0.60;;
10074;SDS011;5076;42.680;23.288;2022-11-20T02:40:33;0.90;;;0.70;;
10074;SDS011;5076;42.680;23.288;2022-11-20T02:43:01;1.03;;;0.80;;
10074;SDS011;5076;42.680;23.288;2022-11-20T02:45:27;1.90;;;1.00;;
10074;SDS011;5076;42.680;23.288;2022-11-20T02:47:54;2.77;;;0.80;;
10074;SDS011;5076;42.680;23.288;2022-11-20T02:50:20;1.63;;;0.60;;
10074;SDS011;5076;42.680;23.288;2022-11-20T02:52:47;2.03;;;0.60;;
10074;SDS011;5076;42.680;23.288;2022-11-20T02:55:13;1.47;;;0.80;;
10074;SDS011;5076;42.680;23.288;2022-11-20T02:57:40;2.87;;;1.03;;
10074;SDS011;5076;42.680;23.288;2022-11-20T03:00:09;2.30;;;1.00;;
10074;SDS011;5076;42.680;23.288;2022-11-20T03:02:35;3.03;;;1.17;;
10074;SDS011;5076;42.680;23.288;2022-11-20T03:05:02;2.20;;;1.00;;
10074;SDS011;5076;42.680;23.288;2022-11-20T03:07:29;1.30;;;0.90;;
10074;SDS011;5076;42.680;23.288;2022-11-20T03:09:55;2.20;;;0.90;;
10074;SDS011;5076;42.680;23.288;2022-11-20T03:12:22;3.87;;;1.20;;
10074;SDS011;5076;42.680;23.288;2022-11-20T03:14:48;1.33;;;0.90;;
10074;SDS011;5076;42.680;23.288;2022-11-20T03:17:17;2.43;;;1.00;;
10074;SDS011;5076;42.680;23.288;2022-11-20T03:19:43;4.00;;;1.10;;
10074;SDS011;5076;42.680;23.288;2022-11-20T03:22:10;1.77;;;0.97;;
10074;SDS011;5076;42.680;23.288;2022-11-20T03:24:36;0.97;;;0.70;;
10074;SDS011;5076;42.680;23.288;2022-11-20T03:27:03;1.10;;;0.70;;
10074;SDS011;5076;42.680;23.288;2022-11-20T03:29:29;1.57;;;1.00;;
10074;SDS011;5076;42.680;23.288;2022-11-20T03:31:56;1.70;;;0.70;;
10074;SDS011;5076;42.680;23.288;2022-11-20T03:34:24;2.37;;;0.87;;
10074;SDS011;5076;42.680;23.288;2022-11-20T03:36:50;2.37;;;1.00;;
10074;SDS011;5076;42.680;23.288;2022-11-20T03:39:17;2.87;;;1.00;;
10074;SDS011;5076;42.680;23.288;2022-11-20T03:41:43;1.90;;;0.70;;
10074;SDS011;5076;42.680;23.288;2022-11-20T03:44:10;1.80;;;0.80;;
10074;SDS011;5076;42.680;23.288;2022-11-20T03:46:37;2.13;;;0.93;;
10074;SDS011;5076;42.680;23.288;2022-11-20T03:49:04;1.73;;;0.60;;
10074;SDS011;5076;42.680;23.288;2022-11-20T03:51:32;2.37;;;0.80;;
10074;SDS011;5076;42.680;23.288;2022-11-20T03:54:02;1.30;;;0.70;;
10074;SDS011;5076;42.680;23.288;2022-11-20T03:56:29;2.00;;;0.70;;
10074;SDS011;5076;42.680;23.288;2022-11-20T03:58:56;1.53;;;0.80;;
10074;SDS011;5076;42.680;23.288;2022-11-20T04:01:23;1.57;;;0.77;;
10074;SDS011;5076;42.680;23.288;2022-11-20T04:03:51;1.40;;;0.70;;
10074;SDS011;5076;42.680;23.288;2022-11-20T04:06:19;1.33;;;0.97;;
10074;SDS011;5076;42.680;23.288;2022-11-20T04:08:47;2.63;;;0.90;;
10074;SDS011;5076;42.680;23.288;2022-11-20T04:11:14;3.23;;;0.70;;
10074;SDS011;5076;42.680;23.288;2022-11-20T04:13:42;1.13;;;0.70;;
10074;SDS011;5076;42.680;23.288;2022-11-20T04:16:09;1.13;;;0.60;;
10074;SDS011;5076;42.680;23.288;2022-11-20T04:18:36;1.07;;;0.60;;
10074;SDS011;5076;42.680;23.288;2022-11-20T04:21:02;2.47;;;0.80;;
10074;SDS011;5076;42.680;23.288;2022-11-20T04:23:29;1.87;;;1.30;;
10074;SDS011;5076;42.680;23.288;2022-11-20T04:26:01;1.10;;;0.97;;
10074;SDS011;5076;42.680;23.288;2022-11-20T04:28:28;2.17;;;1.03;;
10074;SDS011;5076;42.680;23.288;2022-11-20T04:31:00;1.47;;;0.80;;
10074;SDS011;5076;42.680;23.288;2022-11-20T04:33:27;0.97;;;0.60;;
10074;SDS011;5076;42.680;23.288;2022-11-20T04:35:53;1.40;;;0.60;;
10074;SDS011;5076;42.680;23.288;2022-11-20T04:38:20;4.23;;;0.90;;
10074;SDS011;5076;42.680;23.288;2022-11-20T04:40:47;4.43;;;0.60;;
10074;SDS011;5076;42.680;23.288;2022-11-20T04:43:14;1.07;;;0.60;;
10074;SDS011;5076;42.680;23.288;2022-11-20T04:45:41;2.50;;;0.83;;
10074;SDS011;5076;42.680;23.288;2022-11-20T04:48:07;0.93;;;0.70;;
10074;SDS011;5076;42.680;23.288;2022-11-20T04:50:34;1.30;;;0.73;;
10074;SDS011;5076;42.680;23.288;2022-11-20T04:53:05;1.93;;;0.90;;
10074;SDS011;5076;42.680;23.288;2022-11-20T04:55:32;1.47;;;0.70;;
10074;SDS011;5076;42.680;23.288;2022-11-20T04:57:58;1.43;;;0.70;;
10074;SDS011;5076;42.680;23.288;2022-11-20T05:00:26;2.07;;;0.87;;
10074;SDS011;5076;42.680;23.288;2022-11-20T05:02:53;0.80;;;0.73;;
10074;SDS011;5076;42.680;23.288;2022-11-20T05:05:19;1.50;;;0.77;;
10074;SDS011;5076;42.680;23.288;2022-11-20T05:07:46;3.00;;;1.30;;
10074;SDS011;5076;42.680;23.288;2022-11-20T05:10:12;4.63;;;3.33;;
10074;SDS011;5076;42.680;23.288;2022-11-20T05:12:39;2.80;;;1.03;;
10074;SDS011;5076;42.680;23.288;2022-11-20T05:15:06;0.80;;;0.70;;
10074;SDS011;5076;42.680;23.288;2022-11-20T05:17:34;2.00;;;0.73;;
10074;SDS011;5076;42.680;23.288;2022-11-20T05:20:00;1.80;;;1.60;;
10074;SDS011;5076;42.680;23.288;2022-11-20T05:22:27;2.03;;;0.90;;
10074;SDS011;5076;42.680;23.288;2022-11-20T05:24:53;1.37;;;0.83;;
10074;SDS011;5076;42.680;23.288;2022-11-20T05:27:20;1.23;;;0.87;;
10074;SDS011;5076;42.680;23.288;2022-11-20T05:29:46;0.80;;;0.60;;
10074;SDS011;5076;42.680;23.288;2022-11-20T05:32:13;2.67;;;0.93;;
10074;SDS011;5076;42.680;23.288;2022-11-20T05:34:41;0.90;;;0.60;;
10074;SDS011;5076;42.680;23.288;2022-11-20T05:37:07;2.00;;;0.80;;
10074;SDS011;5076;42.680;23.288;2022-11-20T05:39:34;2.27;;;0.80;;
10074;SDS011;5076;42.680;23.288;2022-11-20T05:42:00;2.67;;;2.00;;
10074;SDS011;5076;42.680;23.288;2022-11-20T05:44:45;3.13;;;1.80;;
10074;SDS011;5076;42.680;23.288;2022-11-20T05:47:11;1.43;;;0.63;;
10074;SDS011;5076;42.680;23.288;2022-11-20T05:49:38;2.50;;;0.87;;
10074;SDS011;5076;42.680;23.288;2022-11-20T05:52:05;1.20;;;0.80;;
10074;SDS011;5076;42.680;23.288;2022-11-20T05:54:32;3.23;;;0.80;;
10074;SDS011;5076;42.680;23.288;2022-11-20T05:56:58;1.17;;;0.70;;
10074;SDS011;5076;42.680;23.288;2022-11-20T05:59:25;3.77;;;0.90;;
10074;SDS011;5076;42.680;23.288;2022-11-20T06:01:52;3.80;;;1.07;;
10074;SDS011;5076;42.680;23.288;2022-11-20T06:04:18;0.87;;;0.70;;
10074;SDS011;5076;42.680;23.288;2022-11-20T06:06:45;1.17;;;0.77;;
10074;SDS011;5076;42.680;23.288;2022-11-20T06:09:13;1.83;;;0.90;;
10074;SDS011;5076;42.680;23.288;2022-11-20T06:11:39;2.37;;;0.97;;
10074;SDS011;5076;42.680;23.288;2022-11-20T06:14:06;2.33;;;1.00;;
10074;SDS011;5076;42.680;23.288;2022-11-20T06:16:32;4.33;;;0.90;;
10074;SDS011;5076;42.680;23.288;2022-11-20T06:18:59;2.97;;;0.90;;
10074;SDS011;5076;42.680;23.288;2022-11-20T06:21:25;2.43;;;0.90;;
10074;SDS011;5076;42.680;23.288;2022-11-20T06:23:52;1.93;;;1.00;;
10074;SDS011;5076;42.680;23.288;2022-11-20T06:26:21;5.67;;;1.30;;
10074;SDS011;5076;42.680;23.288;2022-11-20T06:28:48;2.77;;;0.97;;
10074;SDS011;5076;42.680;23.288;2022-11-20T06:31:15;1.93;;;1.00;;
10074;SDS011;5076;42.680;23.288;2022-11-20T06:33:42;3.53;;;1.30;;
10074;SDS011;5076;42.680;23.288;2022-11-20T06:36:09;3.13;;;1.13;;
10074;SDS011;5076;42.680;23.288;2022-11-20T06:38:36;5.57;;;1.53;;
10074;SDS011;5076;42.680;23.288;2022-11-20T06:41:03;2.20;;;1.07;;
10074;SDS011;5076;42.680;23.288;2022-11-20T06:43:31;4.00;;;1.30;;
10074;SDS011;5076;42.680;23.288;2022-11-20T06:45:58;1.50;;;0.80;;
10074;SDS011;5076;42.680;23.288;2022-11-20T06:48:25;3.60;;;1.20;;
10074;SDS011;5076;42.680;23.288;2022-11-20T06:50:52;1.07;;;0.70;;
10074;SDS011;5076;42.680;23.288;2022-11-20T06:53:18;1.57;;;0.93;;
10074;SDS011;5076;42.680;23.288;2022-11-20T06:55:45;2.33;;;1.00;;
10074;SDS011;5076;42.680;23.288;2022-11-20T06:58:12;0.70;;;0.70;;
10074;SDS011;5076;42.680;23.288;2022-11-20T07:00:40;4.50;;;1.83;;
10074;SDS011;5076;42.680;23.288;2022-11-20T07:03:07;1.53;;;1.00;;
10074;SDS011;5076;42.680;23.288;2022-11-20T07:05:34;4.53;;;1.20;;
10074;SDS011;5076;42.680;23.288;2022-11-20T07:08:01;1.83;;;0.80;;
10074;SDS011;5076;42.680;23.288;2022-11-20T07:10:29;1.57;;;0.70;;
10074;SDS011;5076;42.680;23.288;2022-11-20T07:12:55;2.37;;;1.00;;
10074;SDS011;5076;42.680;23.288;2022-11-20T07:15:23;2.20;;;1.07;;
10074;SDS011;5076;42.680;23.288;2022-11-20T07:17:51;3.27;;;1.30;;
10074;SDS011;5076;42.680;23.288;2022-11-20T07:20:18;2.27;;;0.90;;
10074;SDS011;5076;42.680;23.288;2022-11-20T07:22:44;3.00;;;1.07;;
10074;SDS011;5076;42.680;23.288;2022-11-20T07:25:11;2.70;;;1.00;;
10074;SDS011;5076;42.680;23.288;2022-11-20T07:27:37;2.23;;;0.80;;
10074;SDS011;5076;42.680;23.288;2022-11-20T07:30:04;2.60;;;0.90;;
10074;SDS011;5076;42.680;23.288;2022-11-20T07:32:31;3.87;;;1.13;;
10074;SDS011;5076;42.680;23.288;2022-11-20T07:34:59;2.13;;;0.97;;
10074;SDS011;5076;42.680;23.288;2022-11-20T07:37:26;2.13;;;0.80;;
10074;SDS011;5076;42.680;23.288;2022-11-20T07:39:52;4.13;;;1.10;;
10074;SDS011;5076;42.680;23.288;2022-11-20T07:42:19;4.57;;;1.60;;
10074;SDS011;5076;42.680;23.288;2022-11-20T07:44:45;3.03;;;1.07;;
10074;SDS011;5076;42.680;23.288;2022-11-20T07:47:12;3.30;;;1.00;;
10074;SDS011;5076;42.680;23.288;2022-11-20T07:49:38;4.17;;;1.47;;
10074;SDS011;5076;42.680;23.288;2022-11-20T07:52:06;3.83;;;1.27;;
10074;SDS011;5076;42.680;23.288;2022-11-20T07:54:33;2.63;;;1.30;;
10074;SDS011;5076;42.680;23.288;2022-11-20T07:56:59;2.37;;;1.30;;
10074;SDS011;5076;42.680;23.288;2022-11-20T07:59:26;2.77;;;1.37;;
10074;SDS011;5076;42.680;23.288;2022-11-20T08:01:52;4.33;;;1.50;;
10074;SDS011;5076;42.680;23.288;2022-11-20T08:04:19;4.07;;;1.23;;
10074;SDS011;5076;42.680;23.288;2022-11-20T08:06:46;2.47;;;1.50;;
10074;SDS011;5076;42.680;23.288;2022-11-20T08:09:14;2.87;;;1.60;;
10074;SDS011;5076;42.680;23.288;2022-11-20T08:11:41;1.80;;;1.37;;
10074;SDS011;5076;42.680;23.288;2022-11-20T08:14:25;4.23;;;1.40;;
10074;SDS011;5076;42.680;23.288;2022-11-20T08:16:52;2.87;;;1.13;;
10074;SDS011;5076;42.680;23.288;2022-11-20T08:19:19;1.70;;;1.30;;
10074;SDS011;5076;42.680;23.288;2022-11-20T08:21:46;3.27;;;1.60;;
10074;SDS011;5076;42.680;23.288;2022-11-20T08:24:12;3.33;;;1.30;;
10074;SDS011;5076;42.680;23.288;2022-11-20T08:26:40;5.80;;;1.50;;
10074;SDS011;5076;42.680;23.288;2022-11-20T08:29:07;2.87;;;1.20;;
10074;SDS011;5076;42.680;23.288;2022-11-20T08:31:34;2.70;;;1.27;;
10074;SDS011;5076;42.680;23.288;2022-11-20T08:34:00;3.50;;;1.47;;
10074;SDS011;5076;42.680;23.288;2022-11-20T08:36:27;3.20;;;2.10;;
10074;SDS011;5076;42.680;23.288;2022-11-20T08:38:54;4.73;;;1.90;;
10074;SDS011;5076;42.680;23.288;2022-11-20T08:41:21;6.10;;;2.10;;
10074;SDS011;5076;42.680;23.288;2022-11-20T08:43:52;3.03;;;1.10;;
10074;SDS011;5076;42.680;23.288;2022-11-20T08:46:19;5.57;;;1.70;;
10074;SDS011;5076;42.680;23.288;2022-11-20T08:48:45;5.27;;;1.50;;
10074;SDS011;5076;42.680;23.288;2022-11-20T08:51:12;5.20;;;2.23;;
10074;SDS011;5076;42.680;23.288;2022-11-20T08:53:39;4.93;;;1.97;;
10074;SDS011;5076;42.680;23.288;2022-11-20T08:56:06;5.83;;;3.10;;
10074;SDS011;5076;42.680;23.288;2022-11-20T08:58:32;9.67;;;5.77;;
10074;SDS011;5076;42.680;23.288;2022-11-20T09:01:00;4.07;;;2.27;;
10074;SDS011;5076;42.680;23.288;2022-11-20T09:03:27;5.43;;;3.20;;
10074;SDS011;5076;42.680;23.288;2022-11-20T09:05:56;6.13;;;2.90;;
10074;SDS011;5076;42.680;23.288;2022-11-20T09:08:23;7.43;;;1.83;;
10074;SDS011;5076;42.680;23.288;2022-11-20T09:10:50;4.17;;;2.20;;
10074;SDS011;5076;42.680;23.288;2022-11-20T09:13:17;3.13;;;2.00;;
10074;SDS011;5076;42.680;23.288;2022-11-20T09:15:44;6.13;;;1.97;;
10074;SDS011;5076;42.680;23.288;2022-11-20T09:18:12;5.43;;;2.80;;
10074;SDS011;5076;42.680;23.288;2022-11-20T09:20:38;2.90;;;1.40;;
10074;SDS011;5076;42.680;23.288;2022-11-20T09:23:05;4.17;;;1.70;;
10074;SDS011;5076;42.680;23.288;2022-11-20T09:25:32;2.40;;;1.10;;
10074;SDS011;5076;42.680;23.288;2022-11-20T09:27:58;5.67;;;2.40;;
10074;SDS011;5076;42.680;23.288;2022-11-20T09:30:25;1.70;;;0.87;;
10074;SDS011;5076;42.680;23.288;2022-11-20T09:32:51;3.27;;;1.30;;
10074;SDS011;5076;42.680;23.288;2022-11-20T09:35:19;1.87;;;0.90;;
10074;SDS011;5076;42.680;23.288;2022-11-20T09:37:46;2.57;;;1.00;;
10074;SDS011;5076;42.680;23.288;2022-11-20T09:40:17;4.53;;;1.47;;
10074;SDS011;5076;42.680;23.288;2022-11-20T09:42:46;4.10;;;2.13;;
10074;SDS011;5076;42.680;23.288;2022-11-20T09:45:21;6.37;;;2.57;;
10074;SDS011;5076;42.680;23.288;2022-11-20T09:47:55;5.53;;;1.83;;
10074;SDS011;5076;42.680;23.288;2022-11-20T09:50:27;5.40;;;2.73;;
10074;SDS011;5076;42.680;23.288;2022-11-20T09:53:00;8.40;;;5.10;;
10074;SDS011;5076;42.680;23.288;2022-11-20T09:55:30;7.43;;;3.30;;
10074;SDS011;5076;42.680;23.288;2022-11-20T09:57:57;11.97;;;3.67;;
10074;SDS011;5076;42.680;23.288;2022-11-20T10:00:24;4.57;;;2.37;;
10074;SDS011;5076;42.680;23.288;2022-11-20T10:02:52;5.53;;;1.93;;
10074;SDS011;5076;42.680;23.288;2022-11-20T10:05:21;4.37;;;1.90;;
10074;SDS011;5076;42.680;23.288;2022-11-20T10:07:52;4.33;;;1.40;;
10074;SDS011;5076;42.680;23.288;2022-11-20T10:10:25;5.17;;;1.97;;
10074;SDS011;5076;42.680;23.288;2022-11-20T10:12:59;4.37;;;1.83;;
10074;SDS011;5076;42.680;23.288;2022-11-20T10:15:32;3.13;;;1.70;;
10074;SDS011;5076;42.680;23.288;2022-11-20T10:18:09;5.20;;;2.07;;
10074;SDS011;5076;42.680;23.288;2022-11-20T10:20:40;4.20;;;1.83;;
10074;SDS011;5076;42.680;23.288;2022-11-20T10:23:20;2.83;;;1.87;;
10074;SDS011;5076;42.680;23.288;2022-11-20T10:25:50;2.97;;;1.63;;
10074;SDS011;5076;42.680;23.288;2022-11-20T10:28:22;3.43;;;1.70;;
10074;SDS011;5076;42.680;23.288;2022-11-20T10:30:53;3.90;;;1.80;;
10074;SDS011;5076;42.680;23.288;2022-11-20T10:33:21;5.73;;;2.20;;
10074;SDS011;5076;42.680;23.288;2022-11-20T10:35:50;2.80;;;1.70;;
10074;SDS011;5076;42.680;23.288;2022-11-20T10:38:20;3.60;;;2.00;;
10074;SDS011;5076;42.680;23.288;2022-11-20T10:40:48;4.73;;;1.93;;
10074;SDS011;5076;42.680;23.288;2022-11-20T10:43:16;3.53;;;1.80;;
10074;SDS011;5076;42.680;23.288;2022-11-20T10:45:46;4.47;;;2.40;;
10074;SDS011;5076;42.680;23.288;2022-11-20T10:48:16;6.40;;;2.30;;
10074;SDS011;5076;42.680;23.288;2022-11-20T10:53:31;5.40;;;2.23;;
10074;SDS011;5076;42.680;23.288;2022-11-20T10:56:00;6.80;;;2.77;;
10074;SDS011;5076;42.680;23.288;2022-11-20T10:58:31;6.90;;;2.63;;
10074;SDS011;5076;42.680;23.288;2022-11-20T11:01:03;5.70;;;2.13;;
10074;SDS011;5076;42.680;23.288;2022-11-20T11:03:30;4.83;;;1.90;;
10074;SDS011;5076;42.680;23.288;2022-11-20T11:05:59;6.77;;;2.07;;
10074;SDS011;5076;42.680;23.288;2022-11-20T11:08:28;5.33;;;1.50;;
10074;SDS011;5076;42.680;23.288;2022-11-20T11:10:58;5.13;;;1.90;;
10074;SDS011;5076;42.680;23.288;2022-11-20T11:13:27;1.97;;;1.20;;
10074;SDS011;5076;42.680;23.288;2022-11-20T11:15:53;3.13;;;1.63;;
10074;SDS011;5076;42.680;23.288;2022-11-20T11:18:24;2.07;;;1.00;;
10074;SDS011;5076;42.680;23.288;2022-11-20T11:20:51;3.70;;;1.70;;
10074;SDS011;5076;42.680;23.288;2022-11-20T11:23:24;2.33;;;1.30;;
10074;SDS011;5076;42.680;23.288;2022-11-20T11:25:56;5.30;;;2.00;;
10074;SDS011;5076;42.680;23.288;2022-11-20T11:28:24;4.33;;;1.83;;
10074;SDS011;5076;42.680;23.288;2022-11-20T11:30:52;7.43;;;1.57;;
10074;SDS011;5076;42.680;23.288;2022-11-20T11:33:19;3.90;;;2.33;;
10074;SDS011;5076;42.680;23.288;2022-11-20T11:35:47;1.50;;;0.90;;
10074;SDS011;5076;42.680;23.288;2022-11-20T11:38:14;1.40;;;0.90;;
10074;SDS011;5076;42.680;23.288;2022-11-20T11:40:42;7.67;;;3.90;;
10074;SDS011;5076;42.680;23.288;2022-11-20T11:43:16;6.33;;;3.00;;
10074;SDS011;5076;42.680;23.288;2022-11-20T11:45:58;2.70;;;1.33;;
10074;SDS011;5076;42.680;23.288;2022-11-20T11:48:25;2.97;;;1.40;;
10074;SDS011;5076;42.680;23.288;2022-11-20T11:50:51;2.50;;;0.70;;
10074;SDS011;5076;42.680;23.288;2022-11-20T11:53:19;4.13;;;1.73;;
10074;SDS011;5076;42.680;23.288;2022-11-20T11:55:49;4.20;;;1.40;;
10074;SDS011;5076;42.680;23.288;2022-11-20T11:58:20;3.93;;;1.70;;
10074;SDS011;5076;42.680;23.288;2022-11-20T12:00:56;4.90;;;1.97;;
10074;SDS011;5076;42.680;23.288;2022-11-20T12:03:27;1.80;;;0.90;;
10074;SDS011;5076;42.680;23.288;2022-11-20T12:05:55;3.00;;;2.23;;
10074;SDS011;5076;42.680;23.288;2022-11-20T12:08:23;3.47;;;0.97;;
10074;SDS011;5076;42.680;23.288;2022-11-20T12:10:53;2.07;;;0.90;;
10074;SDS011;5076;42.680;23.288;2022-11-20T12:13:25;2.17;;;0.80;;
10074;SDS011;5076;42.680;23.288;2022-11-20T12:15:55;3.83;;;1.17;;
10074;SDS011;5076;42.680;23.288;2022-11-20T12:18:22;1.63;;;0.73;;
10074;SDS011;5076;42.680;23.288;2022-11-20T12:20:54;3.50;;;1.20;;
10074;SDS011;5076;42.680;23.288;2022-11-20T12:23:24;3.13;;;1.47;;
10074;SDS011;5076;42.680;23.288;2022-11-20T12:25:55;4.60;;;1.50;;
10074;SDS011;5076;42.680;23.288;2022-11-20T12:28:29;2.27;;;1.00;;
10074;SDS011;5076;42.680;23.288;2022-11-20T12:31:10;4.50;;;1.47;;
10074;SDS011;5076;42.680;23.288;2022-11-20T12:33:46;3.87;;;0.80;;
10074;SDS011;5076;42.680;23.288;2022-11-20T12:36:19;4.28;;;1.08;;
10074;SDS011;5076;42.680;23.288;2022-11-20T12:38:51;3.77;;;1.00;;
10074;SDS011;5076;42.680;23.288;2022-11-20T12:41:23;1.87;;;0.77;;
10074;SDS011;5076;42.680;23.288;2022-11-20T12:44:13;5.33;;;1.00;;
10074;SDS011;5076;42.680;23.288;2022-11-20T12:47:03;3.43;;;1.30;;
10074;SDS011;5076;42.680;23.288;2022-11-20T12:49:35;2.27;;;1.20;;
10074;SDS011;5076;42.680;23.288;2022-11-20T12:52:09;3.13;;;1.00;;
10074;SDS011;5076;42.680;23.288;2022-11-20T12:54:58;2.10;;;1.10;;
10074;SDS011;5076;42.680;23.288;2022-11-20T12:57:29;0.93;;;0.70;;
10074;SDS011;5076;42.680;23.288;2022-11-20T13:00:07;2.43;;;1.17;;
10074;SDS011;5076;42.680;23.288;2022-11-20T13:02:37;4.50;;;2.33;;
10074;SDS011;5076;42.680;23.288;2022-11-20T13:05:10;5.17;;;2.20;;
10074;SDS011;5076;42.680;23.288;2022-11-20T13:07:40;4.67;;;2.40;;
10074;SDS011;5076;42.680;23.288;2022-11-20T13:10:16;5.03;;;2.50;;
10074;SDS011;5076;42.680;23.288;2022-11-20T13:12:45;4.00;;;2.20;;
10074;SDS011;5076;42.680;23.288;2022-11-20T13:15:15;4.37;;;2.13;;
10074;SDS011;5076;42.680;23.288;2022-11-20T13:17:46;6.20;;;4.60;;
10074;SDS011;5076;42.680;23.288;2022-11-20T13:20:16;4.20;;;2.27;;
10074;SDS011;5076;42.680;23.288;2022-11-20T13:22:44;3.60;;;2.00;;
10074;SDS011;5076;42.680;23.288;2022-11-20T13:25:21;3.97;;;2.00;;
10074;SDS011;5076;42.680;23.288;2022-11-20T13:27:48;9.07;;;2.60;;
10074;SDS011;5076;42.680;23.288;2022-11-20T13:30:15;8.27;;;5.57;;
10074;SDS011;5076;42.680;23.288;2022-11-20T13:32:53;11.47;;;7.70;;
10074;SDS011;5076;42.680;23.288;2022-11-20T13:35:27;9.63;;;7.27;;
10074;SDS011;5076;42.680;23.288;2022-11-20T13:38:06;12.80;;;7.30;;
10074;SDS011;5076;42.680;23.288;2022-11-20T13:40:33;6.20;;;3.67;;
10074;SDS011;5076;42.680;23.288;2022-11-20T13:43:04;5.87;;;2.97;;
10074;SDS011;5076;42.680;23.288;2022-11-20T13:45:33;7.93;;;3.80;;
10074;SDS011;5076;42.680;23.288;2022-11-20T13:48:01;8.13;;;4.20;;
10074;SDS011;5076;42.680;23.288;2022-11-20T13:50:39;5.27;;;3.37;;
10074;SDS011;5076;42.680;23.288;2022-11-20T13:53:09;4.60;;;3.17;;
10074;SDS011;5076;42.680;23.288;2022-11-20T13:55:42;11.03;;;6.47;;
10074;SDS011;5076;42.680;23.288;2022-11-20T13:58:15;9.13;;;4.60;;
10074;SDS011;5076;42.680;23.288;2022-11-20T14:00:55;5.77;;;4.13;;
10074;SDS011;5076;42.680;23.288;2022-11-20T14:03:23;8.00;;;4.17;;
10074;SDS011;5076;42.680;23.288;2022-11-20T14:05:51;6.77;;;3.40;;
10074;SDS011;5076;42.680;23.288;2022-11-20T14:08:27;4.03;;;3.30;;
10074;SDS011;5076;42.680;23.288;2022-11-20T14:11:04;5.70;;;3.73;;
10074;SDS011;5076;42.680;23.288;2022-11-20T14:13:31;3.87;;;3.37;;
10074;SDS011;5076;42.680;23.288;2022-11-20T14:15:57;4.17;;;2.20;;
10074;SDS011;5076;42.680;23.288;2022-11-20T14:18:25;2.33;;;1.67;;
10074;SDS011;5076;42.680;23.288;2022-11-20T14:20:51;4.43;;;2.27;;
10074;SDS011;5076;42.680;23.288;2022-11-20T14:23:23;5.77;;;2.67;;
10074;SDS011;5076;42.680;23.288;2022-11-20T14:25:51;3.27;;;2.23;;
10074;SDS011;5076;42.680;23.288;2022-11-20T14:28:20;5.03;;;2.40;;
10074;SDS011;5076;42.680;23.288;2022-11-20T14:30:49;4.57;;;2.80;;
10074;SDS011;5076;42.680;23.288;2022-11-20T14:33:16;7.20;;;3.60;;
10074;SDS011;5076;42.680;23.288;2022-11-20T14:35:45;4.93;;;3.17;;
10074;SDS011;5076;42.680;23.288;2022-11-20T14:38:12;3.73;;;2.60;;
10074;SDS011;5076;42.680;23.288;2022-11-20T14:40:40;5.80;;;3.60;;
10074;SDS011;5076;42.680;23.288;2022-11-20T14:43:17;5.27;;;3.23;;
10074;SDS011;5076;42.680;23.288;2022-11-20T14:45:44;2.03;;;1.83;;
10074;SDS011;5076;42.680;23.288;2022-11-20T14:48:12;4.13;;;2.70;;
10074;SDS011;5076;42.680;23.288;2022-11-20T14:50:39;3.13;;;1.50;;
10074;SDS011;5076;42.680;23.288;2022-11-20T14:53:05;2.67;;;2.03;;
10074;SDS011;5076;42.680;23.288;2022-11-20T14:55:33;2.70;;;1.80;;
10074;SDS011;5076;42.680;23.288;2022-11-20T14:58:00;3.47;;;2.20;;
10074;SDS011;5076;42.680;23.288;2022-11-20T15:00:29;3.27;;;1.90;;